createdAt,value
2023-03-16T00:02:30.289Z,19.98
2023-03-16T00:07:32.644Z,19.70
2023-03-16T00:12:34.913Z,17.50
2023-03-16T00:17:37.417Z,19.35
2023-03-16T00:22:39.511Z,25.17
2023-03-16T00:27:41.804Z,19.73
2023-03-16T00:32:44.077Z,18.30
2023-03-16T00:37:46.349Z,18.55
2023-03-16T00:42:48.481Z,20.27
2023-03-16T00:47:50.593Z,23.75
2023-03-16T00:52:53.841Z,19.83
2023-03-16T00:57:56.120Z,20.80
2023-03-16T01:02:58.272Z,17.25
2023-03-16T01:08:02.843Z,18.65
2023-03-16T01:13:04.966Z,21.38
2023-03-16T01:18:07.187Z,18.95
2023-03-16T01:23:09.391Z,20.45
2023-03-16T01:28:13.611Z,20.00
2023-03-16T01:33:17.146Z,24.45
2023-03-16T01:38:19.739Z,21.95
2023-03-16T01:43:24.462Z,19.83
2023-03-16T01:48:29.426Z,20.40
2023-03-16T01:53:33.626Z,18.77
2023-03-16T01:58:37.804Z,19.08
2023-03-16T02:03:41.898Z,17.23
2023-03-16T02:08:55.524Z,21.67
2023-03-16T02:14:05.336Z,20.17
2023-03-16T02:19:13.307Z,19.35
2023-03-16T02:24:15.735Z,17.95
2023-03-16T02:30:01.718Z,22.75
2023-03-16T02:35:10.599Z,18.40
2023-03-16T02:40:23.869Z,19.73
2023-03-16T02:45:33.673Z,17.83
2023-03-16T02:50:37.184Z,17.02
2023-03-16T02:55:39.517Z,19.23
2023-03-16T03:00:43.137Z,20.30
2023-03-16T03:05:46.524Z,19.65
2023-03-16T03:10:49.337Z,18.77
2023-03-16T03:15:52.851Z,17.92
2023-03-16T03:20:57.903Z,23.27
2023-03-16T03:26:00.668Z,20.00
2023-03-16T03:31:03.899Z,21.33
2023-03-16T03:36:06.413Z,16.63
2023-03-16T03:41:11.605Z,18.58
2023-03-16T03:46:15.238Z,21.95
2023-03-16T03:51:17.664Z,19.40
2023-03-16T03:56:33.200Z,20.00
2023-03-16T04:01:35.594Z,19.17
2023-03-16T04:06:37.803Z,22.27
2023-03-16T04:11:40.385Z,15.35
2023-03-16T04:16:44.440Z,21.30
2023-03-16T04:21:48.873Z,17.65
2023-03-16T04:26:54.618Z,16.90
2023-03-16T04:31:57.518Z,19.40
2023-03-16T04:37:02.486Z,18.52
2023-03-16T04:42:06.959Z,20.52
2023-03-16T04:47:09.302Z,19.13
2023-03-16T04:52:13.918Z,18.83
2023-03-16T04:57:19.483Z,17.00
2023-03-16T05:02:25.024Z,16.58
2023-03-16T05:07:27.786Z,18.15
2023-03-16T05:12:31.389Z,20.80
2023-03-16T05:17:38.525Z,19.05
2023-03-16T05:22:46.358Z,18.90
2023-03-16T05:28:09.414Z,19.02
2023-03-16T05:33:18.578Z,16.67
2023-03-16T05:38:25.522Z,18.90
2023-03-16T05:43:31.573Z,18.25
2023-03-16T05:48:35.972Z,22.40
2023-03-16T05:53:39.096Z,22.10
2023-03-16T05:58:49.435Z,24.27
2023-03-16T06:03:52.324Z,20.95
2023-03-16T06:08:57.977Z,18.42
2023-03-16T06:14:02.332Z,21.23
2023-03-16T06:19:04.544Z,19.95
2023-03-16T06:24:09.367Z,19.80
2023-03-16T06:29:11.999Z,21.35
2023-03-16T06:34:15.864Z,23.13
2023-03-16T06:39:18.243Z,22.20
2023-03-16T06:44:23.660Z,21.90
2023-03-16T06:49:38.173Z,21.10
2023-03-16T06:54:48.728Z,23.35
2023-03-16T06:59:52.827Z,22.33
2023-03-16T07:04:54.992Z,25.30
2023-03-16T07:09:57.243Z,21.35
2023-03-16T07:14:59.445Z,24.90
2023-03-16T07:20:05.779Z,20.52
2023-03-16T07:25:09.155Z,24.00
2023-03-16T07:30:14.426Z,24.05
2023-03-16T07:35:19.125Z,21.73
2023-03-16T07:40:21.938Z,22.80
2023-03-16T07:45:24.111Z,23.55
2023-03-16T07:50:26.757Z,23.33
2023-03-16T07:55:31.847Z,29.05
2023-03-16T08:00:34.630Z,24.17
2023-03-16T08:05:36.983Z,23.70
2023-03-16T08:10:48.681Z,23.83
2023-03-16T08:15:58.770Z,21.85
2023-03-16T08:21:08.709Z,23.02
2023-03-16T08:26:11.133Z,24.73
2023-03-16T08:31:15.680Z,24.23
2023-03-16T08:36:30.853Z,23.40
2023-03-16T08:41:34.868Z,24.30
2023-03-16T08:46:42.624Z,24.15
2023-03-16T08:51:45.260Z,22.42
2023-03-16T08:56:47.355Z,24.38
2023-03-16T09:01:49.717Z,23.73
2023-03-16T09:07:05.879Z,25.98
2023-03-16T09:12:10.507Z,22.20
2023-03-16T09:17:12.978Z,20.30
2023-03-16T09:22:15.184Z,23.10
2023-03-16T09:27:18.283Z,24.60
2023-03-16T09:32:20.535Z,24.77
2023-03-16T09:37:23.264Z,22.02
2023-03-16T09:42:36.662Z,23.83
2023-03-16T09:47:40.832Z,19.90
2023-03-16T09:53:18.874Z,20.08
2023-03-16T09:58:22.608Z,24.23
2023-03-16T10:04:01.159Z,37.83
2023-03-16T10:09:29.247Z,37.70
2023-03-16T10:14:48.504Z,53.45
2023-03-16T10:19:58.172Z,36.90
2023-03-16T10:25:25.069Z,23.15
2023-03-16T10:30:36.379Z,24.63
2023-03-16T10:35:58.090Z,23.17
2023-03-16T10:41:00.920Z,32.08
2023-03-16T10:46:03.282Z,35.72
2023-03-16T10:51:12.876Z,26.02
2023-03-16T10:56:25.418Z,30.17
2023-03-16T11:01:29.173Z,24.42
2023-03-16T11:06:33.122Z,21.52
2023-03-16T11:11:36.276Z,19.80
2023-03-16T11:16:48.072Z,20.48
2023-03-16T11:22:08.521Z,20.27
2023-03-16T11:27:45.031Z,19.50
2023-03-16T11:32:53.607Z,18.85
2023-03-16T11:38:15.872Z,19.83
2023-03-16T11:43:53.398Z,20.65
2023-03-16T11:49:10.839Z,17.83
2023-03-16T11:54:15.833Z,21.15
2023-03-16T11:59:46.247Z,22.58
2023-03-16T12:05:22.555Z,20.40
2023-03-16T12:10:43.796Z,21.45
2023-03-16T12:15:51.969Z,21.17
2023-03-16T12:20:58.815Z,22.67
2023-03-16T12:26:01.362Z,21.50
2023-03-16T12:31:37.685Z,21.48
2023-03-16T12:37:14.785Z,20.95
2023-03-16T12:42:29.534Z,22.90
2023-03-16T12:47:52.436Z,19.95
2023-03-16T12:52:54.944Z,21.83
2023-03-16T12:58:05.270Z,22.63
2023-03-16T13:03:15.723Z,25.60
2023-03-16T13:08:20.749Z,22.30
2023-03-16T13:13:25.726Z,24.85
2023-03-16T13:18:35.877Z,22.92
2023-03-16T13:23:58.602Z,27.17
2023-03-16T13:29:00.801Z,28.10
2023-03-16T13:34:04.143Z,25.95
2023-03-16T13:39:27.825Z,25.52
2023-03-16T13:44:30.743Z,26.83
2023-03-16T13:49:32.956Z,28.88
2023-03-16T13:54:37.499Z,23.27
2023-03-16T13:59:42.074Z,26.27
2023-03-16T14:04:44.240Z,26.52
2023-03-16T14:09:47.054Z,24.38
2023-03-16T14:14:55.711Z,26.67
2023-03-16T14:20:01.025Z,25.92
2023-03-16T14:25:05.818Z,29.48
2023-03-16T14:30:14.776Z,27.85
2023-03-16T14:35:22.038Z,29.88
2023-03-16T14:40:32.418Z,33.30
2023-03-16T14:45:36.757Z,28.08
2023-03-16T14:50:39.456Z,26.77
2023-03-16T14:55:42.078Z,27.75
2023-03-16T15:00:52.771Z,24.52
2023-03-16T15:05:56.035Z,18.40
2023-03-16T15:11:03.200Z,18.67
2023-03-16T15:16:06.610Z,21.95
2023-03-16T15:21:14.703Z,19.25
2023-03-16T15:26:25.059Z,17.85
2023-03-16T15:31:27.559Z,20.50
2023-03-16T15:36:29.702Z,20.88
2023-03-16T15:41:38.310Z,17.55
2023-03-16T15:46:48.083Z,20.10
2023-03-16T15:51:51.500Z,20.10
2023-03-16T15:56:56.067Z,17.38
2023-03-16T16:01:58.449Z,17.42
2023-03-16T16:07:03.032Z,17.60
2023-03-16T16:12:05.466Z,18.88
2023-03-16T16:17:36.514Z,19.63
2023-03-16T16:22:46.628Z,19.48
2023-03-16T16:27:49.289Z,23.65
2023-03-16T16:32:51.794Z,23.70
2023-03-16T16:37:54.080Z,24.52
2023-03-16T16:42:56.424Z,22.55
2023-03-16T16:47:59.406Z,22.50
2023-03-16T16:53:01.732Z,27.42
2023-03-16T16:58:07.797Z,27.35
2023-03-16T17:03:28.434Z,27.58
2023-03-16T17:08:30.534Z,26.38
2023-03-16T17:13:42.079Z,28.90
2023-03-16T17:18:46.122Z,27.48
2023-03-16T17:23:49.190Z,27.88
2023-03-16T17:28:57.347Z,24.92
2023-03-16T17:33:59.538Z,25.17
2023-03-16T17:39:03.323Z,24.88
2023-03-16T17:44:09.260Z,24.25
2023-03-16T17:49:17.836Z,26.17
2023-03-16T17:54:20.161Z,23.38
2023-03-16T17:59:23.343Z,23.63
2023-03-16T18:04:26.469Z,20.77
2023-03-16T18:09:28.882Z,22.15
2023-03-16T18:14:36.464Z,22.42
2023-03-16T18:19:39.868Z,22.27
2023-03-16T18:24:43.161Z,21.77
2023-03-16T18:29:47.099Z,16.85
2023-03-16T18:34:50.773Z,15.82
2023-03-16T18:39:54.353Z,12.82
2023-03-16T18:44:57.517Z,11.75
2023-03-16T18:50:00.476Z,8.98
2023-03-16T18:55:02.627Z,8.30
2023-03-16T19:00:06.949Z,6.78
2023-03-16T19:05:18.754Z,7.43
2023-03-16T19:10:31.858Z,6.65
2023-03-16T19:15:35.716Z,6.15
2023-03-16T19:20:38.358Z,4.80
2023-03-16T19:25:42.609Z,4.88
2023-03-16T19:30:46.780Z,4.43
2023-03-16T19:35:52.070Z,3.63
2023-03-16T19:40:58.092Z,5.05
2023-03-16T19:46:00.262Z,4.78
2023-03-16T19:51:02.415Z,4.05
2023-03-16T19:56:05.274Z,4.15
2023-03-16T20:01:17.643Z,3.85
2023-03-16T20:06:22.391Z,3.83
2023-03-16T20:11:32.312Z,5.22
2023-03-16T20:16:35.788Z,2.90
2023-03-16T20:21:37.962Z,6.13
2023-03-16T20:26:40.115Z,3.72
2023-03-16T20:31:42.441Z,4.47
2023-03-16T20:36:45.563Z,4.55
2023-03-16T20:41:48.130Z,5.20
2023-03-16T20:46:50.307Z,5.45
2023-03-16T20:51:52.462Z,5.40
2023-03-16T20:56:55.402Z,7.22
2023-03-16T21:01:57.560Z,7.35
2023-03-16T21:06:59.713Z,7.85
2023-03-16T21:12:01.793Z,11.00
2023-03-16T21:17:03.920Z,7.45
2023-03-16T21:22:23.863Z,7.32
2023-03-16T21:27:29.761Z,9.52
2023-03-16T21:32:33.843Z,7.35
2023-03-16T21:37:35.964Z,4.70
2023-03-16T21:42:38.064Z,5.88
2023-03-16T21:47:40.753Z,6.43
2023-03-16T21:52:43.445Z,8.43
2023-03-16T21:57:46.191Z,5.55
2023-03-16T22:02:50.968Z,7.07
2023-03-16T22:07:53.079Z,7.38
2023-03-16T22:12:56.814Z,5.20
2023-03-16T22:18:04.798Z,4.53
2023-03-16T22:23:07.556Z,5.05
2023-03-16T22:28:12.699Z,5.75
2023-03-16T22:33:23.690Z,4.72
2023-03-16T22:38:26.456Z,8.07
2023-03-16T22:43:35.412Z,6.70
2023-03-16T22:48:37.478Z,5.80
2023-03-16T22:53:46.067Z,5.10
2023-03-16T22:58:51.550Z,4.80
2023-03-16T23:03:53.863Z,4.57
2023-03-16T23:08:56.500Z,4.03
2023-03-16T23:13:59.872Z,4.63
2023-03-16T23:25:37.041Z,3.78
2023-03-16T23:30:40.281Z,3.35
2023-03-16T23:35:46.431Z,3.63
2023-03-16T23:40:49.554Z,6.55
2023-03-16T23:45:52.303Z,4.72
2023-03-16T23:50:55.926Z,3.30
2023-03-16T23:55:58.151Z,3.17
